< < Back
Terminal Aerodrome Forecast


Current Version              Previous Versions:   1  2  3  4  5  6  7  8  9  

Terminal Aerodrome Forecast

866
FTUS44 KBMX 291120
TAFTCL
TAF
KTCL 291120Z 2912/3012 30003KT P6SM FEW250
     FM291800 33005KT P6SM SCT050 BKN100
     FM300300 32002KT P6SM SKC=

Latest METAR

550
SAUS70 KWBC 300500 RRL
MTRTCL
METAR KTCL 300453Z AUTO 00000KT 10SM CLR 22/21 A3004 RMK AO2 SLP168
T02170206


USA.gov is the U.S. government's official web portal to all federal, state and local government web resources and services.